sensor_id;sensor_type;location;lat;lon;timestamp;temperature;humidity
21906;DHT22;11117;48.644;9.006;2022-09-03T00:02:42;17.20;98.40
21906;DHT22;11117;48.644;9.006;2022-09-03T00:07:48;17.10;98.50
21906;DHT22;11117;48.644;9.006;2022-09-03T00:10:30;17.10;98.60
21906;DHT22;11117;48.644;9.006;2022-09-03T00:13:03;17.20;99.00
21906;DHT22;11117;48.644;9.006;2022-09-03T00:15:31;17.20;98.80
21906;DHT22;11117;48.644;9.006;2022-09-03T00:18:06;17.10;98.50
21906;DHT22;11117;48.644;9.006;2022-09-03T00:20:40;17.10;98.30
21906;DHT22;11117;48.644;9.006;2022-09-03T00:23:11;17.10;98.40
21906;DHT22;11117;48.644;9.006;2022-09-03T00:25:43;17.10;98.50
21906;DHT22;11117;48.644;9.006;2022-09-03T00:28:22;17.10;98.40
21906;DHT22;11117;48.644;9.006;2022-09-03T00:31:13;17.20;98.40
21906;DHT22;11117;48.644;9.006;2022-09-03T00:33:40;17.20;98.20
21906;DHT22;11117;48.644;9.006;2022-09-03T00:36:22;17.20;98.30
21906;DHT22;11117;48.644;9.006;2022-09-03T00:38:50;17.20;98.40
21906;DHT22;11117;48.644;9.006;2022-09-03T00:44:21;17.20;99.10
21906;DHT22;11117;48.644;9.006;2022-09-03T00:47:28;17.30;98.80
21906;DHT22;11117;48.644;9.006;2022-09-03T00:55:37;17.20;99.00
21906;DHT22;11117;48.644;9.006;2022-09-03T00:58:36;17.20;98.70
21906;DHT22;11117;48.644;9.006;2022-09-03T01:01:47;17.20;98.70
21906;DHT22;11117;48.644;9.006;2022-09-03T01:07:03;17.20;98.60
21906;DHT22;11117;48.644;9.006;2022-09-03T01:12:20;17.10;99.90
21906;DHT22;11117;48.644;9.006;2022-09-03T01:15:00;17.00;99.90
21906;DHT22;11117;48.644;9.006;2022-09-03T01:17:36;17.10;99.90
21906;DHT22;11117;48.644;9.006;2022-09-03T01:20:36;17.10;99.90
21906;DHT22;11117;48.644;9.006;2022-09-03T01:29:06;17.10;99.70
21906;DHT22;11117;48.644;9.006;2022-09-03T01:31:46;17.10;99.60
21906;DHT22;11117;48.644;9.006;2022-09-03T01:46:01;16.90;99.90
21906;DHT22;11117;48.644;9.006;2022-09-03T01:51:38;16.90;99.90
21906;DHT22;11117;48.644;9.006;2022-09-03T01:59:17;16.90;99.90
21906;DHT22;11117;48.644;9.006;2022-09-03T02:01:52;16.90;99.90
21906;DHT22;11117;48.644;9.006;2022-09-03T02:04:25;16.80;99.90
21906;DHT22;11117;48.644;9.006;2022-09-03T02:06:52;16.80;99.90
21906;DHT22;11117;48.644;9.006;2022-09-03T02:09:19;16.80;99.90
21906;DHT22;11117;48.644;9.006;2022-09-03T02:11:50;16.90;99.90
21906;DHT22;11117;48.644;9.006;2022-09-03T02:14:18;16.80;99.90
21906;DHT22;11117;48.644;9.006;2022-09-03T02:16:44;16.80;99.90
21906;DHT22;11117;48.644;9.006;2022-09-03T02:19:13;16.80;99.90
21906;DHT22;11117;48.644;9.006;2022-09-03T02:21:47;16.80;99.90
21906;DHT22;11117;48.644;9.006;2022-09-03T02:24:14;16.90;99.90
21906;DHT22;11117;48.644;9.006;2022-09-03T02:26:40;16.80;99.90
21906;DHT22;11117;48.644;9.006;2022-09-03T02:29:05;16.80;99.90
21906;DHT22;11117;48.644;9.006;2022-09-03T02:31:31;16.80;99.90
21906;DHT22;11117;48.644;9.006;2022-09-03T02:33:58;16.80;99.90
21906;DHT22;11117;48.644;9.006;2022-09-03T02:36:30;16.90;99.90
21906;DHT22;11117;48.644;9.006;2022-09-03T02:38:56;16.80;99.90
21906;DHT22;11117;48.644;9.006;2022-09-03T02:41:22;16.80;99.90
21906;DHT22;11117;48.644;9.006;2022-09-03T02:43:55;16.80;99.90
21906;DHT22;11117;48.644;9.006;2022-09-03T02:46:27;16.80;99.90
21906;DHT22;11117;48.644;9.006;2022-09-03T02:48:54;16.80;99.90
21906;DHT22;11117;48.644;9.006;2022-09-03T02:51:22;16.70;99.90
21906;DHT22;11117;48.644;9.006;2022-09-03T02:53:48;16.70;99.90
21906;DHT22;11117;48.644;9.006;2022-09-03T02:56:13;16.70;99.90
21906;DHT22;11117;48.644;9.006;2022-09-03T02:58:39;16.70;99.90
21906;DHT22;11117;48.644;9.006;2022-09-03T03:01:05;16.70;99.90
21906;DHT22;11117;48.644;9.006;2022-09-03T03:03:31;16.60;99.90
21906;DHT22;11117;48.644;9.006;2022-09-03T03:06:00;16.60;99.90
21906;DHT22;11117;48.644;9.006;2022-09-03T03:08:27;16.50;99.90
21906;DHT22;11117;48.644;9.006;2022-09-03T03:10:55;16.50;99.90
21906;DHT22;11117;48.644;9.006;2022-09-03T03:13:21;16.40;99.90
21906;DHT22;11117;48.644;9.006;2022-09-03T03:15:47;16.30;99.90
21906;DHT22;11117;48.644;9.006;2022-09-03T03:18:13;16.30;99.90
21906;DHT22;11117;48.644;9.006;2022-09-03T03:20:39;16.30;99.90
21906;DHT22;11117;48.644;9.006;2022-09-03T03:23:05;16.30;99.90
21906;DHT22;11117;48.644;9.006;2022-09-03T03:25:32;16.30;99.90
21906;DHT22;11117;48.644;9.006;2022-09-03T03:27:58;16.30;99.90
21906;DHT22;11117;48.644;9.006;2022-09-03T03:30:23;16.30;99.90
21906;DHT22;11117;48.644;9.006;2022-09-03T03:32:51;16.20;99.90
21906;DHT22;11117;48.644;9.006;2022-09-03T03:35:17;16.20;99.90
21906;DHT22;11117;48.644;9.006;2022-09-03T03:37:42;16.20;99.90
21906;DHT22;11117;48.644;9.006;2022-09-03T03:40:08;16.20;99.90
21906;DHT22;11117;48.644;9.006;2022-09-03T03:42:34;16.10;99.90
21906;DHT22;11117;48.644;9.006;2022-09-03T03:44:59;16.20;99.90
21906;DHT22;11117;48.644;9.006;2022-09-03T03:47:25;16.20;99.90
21906;DHT22;11117;48.644;9.006;2022-09-03T03:49:50;16.20;99.90
21906;DHT22;11117;48.644;9.006;2022-09-03T03:52:16;16.20;99.90
21906;DHT22;11117;48.644;9.006;2022-09-03T03:54:41;16.20;99.90
21906;DHT22;11117;48.644;9.006;2022-09-03T03:57:07;16.30;99.90
21906;DHT22;11117;48.644;9.006;2022-09-03T03:59:32;16.30;99.90
21906;DHT22;11117;48.644;9.006;2022-09-03T04:01:58;16.30;99.90
21906;DHT22;11117;48.644;9.006;2022-09-03T04:04:23;16.50;99.90
21906;DHT22;11117;48.644;9.006;2022-09-03T04:06:49;16.50;99.90
21906;DHT22;11117;48.644;9.006;2022-09-03T04:09:14;16.50;99.90
21906;DHT22;11117;48.644;9.006;2022-09-03T04:11:40;16.60;99.90
21906;DHT22;11117;48.644;9.006;2022-09-03T04:14:06;16.60;99.90
21906;DHT22;11117;48.644;9.006;2022-09-03T04:16:31;16.70;99.90
21906;DHT22;11117;48.644;9.006;2022-09-03T04:18:58;16.70;99.90
21906;DHT22;11117;48.644;9.006;2022-09-03T04:21:25;16.70;99.90
21906;DHT22;11117;48.644;9.006;2022-09-03T04:23:52;16.70;99.90
21906;DHT22;11117;48.644;9.006;2022-09-03T04:26:21;16.70;99.90
21906;DHT22;11117;48.644;9.006;2022-09-03T04:28:47;16.70;99.90
21906;DHT22;11117;48.644;9.006;2022-09-03T04:31:14;16.70;99.90
21906;DHT22;11117;48.644;9.006;2022-09-03T04:33:41;16.70;99.90
21906;DHT22;11117;48.644;9.006;2022-09-03T04:36:13;16.70;99.90
21906;DHT22;11117;48.644;9.006;2022-09-03T04:38:43;16.70;99.90
21906;DHT22;11117;48.644;9.006;2022-09-03T04:41:12;16.80;99.90
21906;DHT22;11117;48.644;9.006;2022-09-03T04:43:38;16.80;99.90
21906;DHT22;11117;48.644;9.006;2022-09-03T04:46:06;16.80;99.90
21906;DHT22;11117;48.644;9.006;2022-09-03T04:48:33;16.90;99.90
21906;DHT22;11117;48.644;9.006;2022-09-03T04:51:11;16.90;99.90
21906;DHT22;11117;48.644;9.006;2022-09-03T04:53:39;16.80;99.90
21906;DHT22;11117;48.644;9.006;2022-09-03T04:56:22;16.90;99.90
21906;DHT22;11117;48.644;9.006;2022-09-03T04:58:53;16.90;99.90
21906;DHT22;11117;48.644;9.006;2022-09-03T05:01:22;17.00;99.90
21906;DHT22;11117;48.644;9.006;2022-09-03T05:03:48;17.00;99.90
21906;DHT22;11117;48.644;9.006;2022-09-03T05:06:14;17.00;99.90
21906;DHT22;11117;48.644;9.006;2022-09-03T05:08:39;17.10;99.90
21906;DHT22;11117;48.644;9.006;2022-09-03T05:11:06;17.10;99.90
21906;DHT22;11117;48.644;9.006;2022-09-03T05:13:33;17.10;99.90
21906;DHT22;11117;48.644;9.006;2022-09-03T05:16:05;17.10;99.90
21906;DHT22;11117;48.644;9.006;2022-09-03T05:18:31;17.10;99.90
21906;DHT22;11117;48.644;9.006;2022-09-03T05:20:58;17.10;99.90
21906;DHT22;11117;48.644;9.006;2022-09-03T05:23:25;17.10;99.90
21906;DHT22;11117;48.644;9.006;2022-09-03T05:25:55;17.10;99.90
21906;DHT22;11117;48.644;9.006;2022-09-03T05:28:20;17.20;99.90
21906;DHT22;11117;48.644;9.006;2022-09-03T05:30:46;17.20;99.90
21906;DHT22;11117;48.644;9.006;2022-09-03T05:33:11;17.10;99.90
21906;DHT22;11117;48.644;9.006;2022-09-03T05:35:37;17.10;99.90
21906;DHT22;11117;48.644;9.006;2022-09-03T05:38:02;17.20;99.90
21906;DHT22;11117;48.644;9.006;2022-09-03T05:40:28;17.20;99.90
21906;DHT22;11117;48.644;9.006;2022-09-03T05:42:54;17.20;99.90
21906;DHT22;11117;48.644;9.006;2022-09-03T05:45:20;17.30;99.90
21906;DHT22;11117;48.644;9.006;2022-09-03T05:47:46;17.40;99.90
21906;DHT22;11117;48.644;9.006;2022-09-03T05:50:11;17.40;99.90
21906;DHT22;11117;48.644;9.006;2022-09-03T05:52:37;17.50;99.90
21906;DHT22;11117;48.644;9.006;2022-09-03T05:55:03;17.60;99.90
21906;DHT22;11117;48.644;9.006;2022-09-03T05:57:29;17.60;99.90
21906;DHT22;11117;48.644;9.006;2022-09-03T05:59:54;17.70;99.90
21906;DHT22;11117;48.644;9.006;2022-09-03T06:02:20;17.70;99.90
21906;DHT22;11117;48.644;9.006;2022-09-03T06:04:48;17.80;99.90
21906;DHT22;11117;48.644;9.006;2022-09-03T06:07:13;17.80;99.90
21906;DHT22;11117;48.644;9.006;2022-09-03T06:09:39;17.80;99.90
21906;DHT22;11117;48.644;9.006;2022-09-03T06:12:04;18.00;99.90
21906;DHT22;11117;48.644;9.006;2022-09-03T06:14:30;18.00;99.90
21906;DHT22;11117;48.644;9.006;2022-09-03T06:16:56;18.10;99.90
21906;DHT22;11117;48.644;9.006;2022-09-03T06:19:21;18.20;99.90
21906;DHT22;11117;48.644;9.006;2022-09-03T06:21:47;18.30;99.90
21906;DHT22;11117;48.644;9.006;2022-09-03T06:24:18;18.30;99.90
21906;DHT22;11117;48.644;9.006;2022-09-03T06:26:44;18.30;99.90
21906;DHT22;11117;48.644;9.006;2022-09-03T06:29:10;18.40;99.90
21906;DHT22;11117;48.644;9.006;2022-09-03T06:31:36;18.50;99.90
21906;DHT22;11117;48.644;9.006;2022-09-03T06:34:01;18.60;99.90
21906;DHT22;11117;48.644;9.006;2022-09-03T06:36:27;18.60;99.90
21906;DHT22;11117;48.644;9.006;2022-09-03T06:38:55;18.60;99.90
21906;DHT22;11117;48.644;9.006;2022-09-03T06:41:23;18.50;99.90
21906;DHT22;11117;48.644;9.006;2022-09-03T06:43:49;18.50;99.90
21906;DHT22;11117;48.644;9.006;2022-09-03T06:46:21;18.50;99.90
21906;DHT22;11117;48.644;9.006;2022-09-03T06:48:47;18.60;99.90
21906;DHT22;11117;48.644;9.006;2022-09-03T06:51:18;18.70;99.90
21906;DHT22;11117;48.644;9.006;2022-09-03T06:53:51;18.80;99.90
21906;DHT22;11117;48.644;9.006;2022-09-03T06:56:20;18.80;99.90
21906;DHT22;11117;48.644;9.006;2022-09-03T06:58:46;18.90;99.90
21906;DHT22;11117;48.644;9.006;2022-09-03T07:01:15;18.90;99.90
21906;DHT22;11117;48.644;9.006;2022-09-03T07:03:42;18.80;99.90
21906;DHT22;11117;48.644;9.006;2022-09-03T07:06:13;18.80;99.90
21906;DHT22;11117;48.644;9.006;2022-09-03T07:08:39;18.80;99.90
21906;DHT22;11117;48.644;9.006;2022-09-03T07:11:06;18.90;99.90
21906;DHT22;11117;48.644;9.006;2022-09-03T07:13:32;19.00;99.90
21906;DHT22;11117;48.644;9.006;2022-09-03T07:16:09;19.20;99.90
21906;DHT22;11117;48.644;9.006;2022-09-03T07:18:35;19.20;99.90
21906;DHT22;11117;48.644;9.006;2022-09-03T07:21:07;19.40;99.90
21906;DHT22;11117;48.644;9.006;2022-09-03T07:23:34;19.40;99.90
21906;DHT22;11117;48.644;9.006;2022-09-03T07:26:02;19.60;99.90
21906;DHT22;11117;48.644;9.006;2022-09-03T07:28:29;19.70;99.90
21906;DHT22;11117;48.644;9.006;2022-09-03T07:31:01;19.80;99.90
21906;DHT22;11117;48.644;9.006;2022-09-03T07:33:28;20.00;99.90
21906;DHT22;11117;48.644;9.006;2022-09-03T07:35:55;20.00;99.90
21906;DHT22;11117;48.644;9.006;2022-09-03T07:38:21;20.10;99.90
21906;DHT22;11117;48.644;9.006;2022-09-03T07:40:46;20.10;99.90
21906;DHT22;11117;48.644;9.006;2022-09-03T07:43:12;20.40;99.90
21906;DHT22;11117;48.644;9.006;2022-09-03T07:45:38;20.50;99.90
21906;DHT22;11117;48.644;9.006;2022-09-03T07:48:04;20.60;99.90
21906;DHT22;11117;48.644;9.006;2022-09-03T07:50:33;20.90;99.90
21906;DHT22;11117;48.644;9.006;2022-09-03T07:52:59;21.20;99.90
21906;DHT22;11117;48.644;9.006;2022-09-03T07:55:24;21.40;99.90
21906;DHT22;11117;48.644;9.006;2022-09-03T07:57:55;21.80;99.90
21906;DHT22;11117;48.644;9.006;2022-09-03T08:00:21;21.90;99.90
21906;DHT22;11117;48.644;9.006;2022-09-03T08:02:46;22.10;99.90
21906;DHT22;11117;48.644;9.006;2022-09-03T08:05:12;22.30;99.90
21906;DHT22;11117;48.644;9.006;2022-09-03T08:07:38;22.50;99.90
21906;DHT22;11117;48.644;9.006;2022-09-03T08:10:04;22.30;99.90
21906;DHT22;11117;48.644;9.006;2022-09-03T08:12:30;22.30;99.90
21906;DHT22;11117;48.644;9.006;2022-09-03T08:14:56;22.30;99.90
21906;DHT22;11117;48.644;9.006;2022-09-03T08:17:22;22.70;99.90
21906;DHT22;11117;48.644;9.006;2022-09-03T08:19:47;22.70;99.90
21906;DHT22;11117;48.644;9.006;2022-09-03T08:22:13;22.90;99.90
21906;DHT22;11117;48.644;9.006;2022-09-03T08:24:38;23.10;99.50
21906;DHT22;11117;48.644;9.006;2022-09-03T08:27:04;23.30;99.00
21906;DHT22;11117;48.644;9.006;2022-09-03T08:29:29;23.40;98.70
21906;DHT22;11117;48.644;9.006;2022-09-03T08:31:55;23.20;97.80
21906;DHT22;11117;48.644;9.006;2022-09-03T08:34:20;23.20;98.50
21906;DHT22;11117;48.644;9.006;2022-09-03T08:36:46;23.40;98.00
21906;DHT22;11117;48.644;9.006;2022-09-03T08:39:12;23.20;97.50
21906;DHT22;11117;48.644;9.006;2022-09-03T08:44:28;23.40;97.30
21906;DHT22;11117;48.644;9.006;2022-09-03T08:47:20;23.60;97.30
21906;DHT22;11117;48.644;9.006;2022-09-03T08:55:16;23.70;97.00
21906;DHT22;11117;48.644;9.006;2022-09-03T08:57:47;23.70;97.60
21906;DHT22;11117;48.644;9.006;2022-09-03T09:00:13;23.80;97.10
21906;DHT22;11117;48.644;9.006;2022-09-03T09:05:53;24.00;96.70
21906;DHT22;11117;48.644;9.006;2022-09-03T09:23:06;23.90;96.50
21906;DHT22;11117;48.644;9.006;2022-09-03T09:25:48;23.70;96.00
21906;DHT22;11117;48.644;9.006;2022-09-03T09:28:32;23.80;96.40
21906;DHT22;11117;48.644;9.006;2022-09-03T09:31:01;24.10;95.90
21906;DHT22;11117;48.644;9.006;2022-09-03T09:33:29;23.80;95.60
21906;DHT22;11117;48.644;9.006;2022-09-03T09:35:55;24.00;95.70
21906;DHT22;11117;48.644;9.006;2022-09-03T09:38:32;24.10;95.10
21906;DHT22;11117;48.644;9.006;2022-09-03T09:41:18;24.40;95.20
21906;DHT22;11117;48.644;9.006;2022-09-03T09:43:45;24.40;94.50
21906;DHT22;11117;48.644;9.006;2022-09-03T09:46:22;24.60;94.90
21906;DHT22;11117;48.644;9.006;2022-09-03T09:48:54;24.70;94.40
21906;DHT22;11117;48.644;9.006;2022-09-03T09:51:25;24.50;93.90
21906;DHT22;11117;48.644;9.006;2022-09-03T09:54:12;24.50;93.80
21906;DHT22;11117;48.644;9.006;2022-09-03T09:56:41;24.80;93.80
21906;DHT22;11117;48.644;9.006;2022-09-03T09:59:08;24.80;93.80
21906;DHT22;11117;48.644;9.006;2022-09-03T10:01:37;24.90;94.10
21906;DHT22;11117;48.644;9.006;2022-09-03T10:04:22;25.20;94.00
21906;DHT22;11117;48.644;9.006;2022-09-03T10:07:15;25.30;93.40
21906;DHT22;11117;48.644;9.006;2022-09-03T10:09:42;25.30;94.00
21906;DHT22;11117;48.644;9.006;2022-09-03T10:12:24;25.40;93.20
21906;DHT22;11117;48.644;9.006;2022-09-03T10:18:06;25.70;92.20
21906;DHT22;11117;48.644;9.006;2022-09-03T10:20:38;25.20;92.60
21906;DHT22;11117;48.644;9.006;2022-09-03T10:23:26;24.90;92.80
21906;DHT22;11117;48.644;9.006;2022-09-03T10:26:10;25.20;92.70
21906;DHT22;11117;48.644;9.006;2022-09-03T10:28:41;25.30;92.60
21906;DHT22;11117;48.644;9.006;2022-09-03T10:34:00;26.00;92.00
21906;DHT22;11117;48.644;9.006;2022-09-03T10:44:26;26.40;91.70
21906;DHT22;11117;48.644;9.006;2022-09-03T10:50:14;26.50;90.30
21906;DHT22;11117;48.644;9.006;2022-09-03T11:00:54;25.90;89.00
21906;DHT22;11117;48.644;9.006;2022-09-03T11:03:26;26.10;90.00
21906;DHT22;11117;48.644;9.006;2022-09-03T11:08:40;25.50;90.30
21906;DHT22;11117;48.644;9.006;2022-09-03T11:11:23;25.60;90.40
21906;DHT22;11117;48.644;9.006;2022-09-03T11:14:08;25.60;90.70
21906;DHT22;11117;48.644;9.006;2022-09-03T11:16:47;25.60;90.70
21906;DHT22;11117;48.644;9.006;2022-09-03T11:19:19;25.50;91.20
21906;DHT22;11117;48.644;9.006;2022-09-03T11:21:49;25.30;90.70
21906;DHT22;11117;48.644;9.006;2022-09-03T11:24:24;25.20;91.30
21906;DHT22;11117;48.644;9.006;2022-09-03T11:30:04;24.80;91.60
21906;DHT22;11117;48.644;9.006;2022-09-03T11:32:50;24.20;92.50
21906;DHT22;11117;48.644;9.006;2022-09-03T11:38:01;23.20;95.00
21906;DHT22;11117;48.644;9.006;2022-09-03T11:40:35;23.00;95.90
21906;DHT22;11117;48.644;9.006;2022-09-03T11:43:24;22.90;97.70
21906;DHT22;11117;48.644;9.006;2022-09-03T11:56:22;22.50;99.90
21906;DHT22;11117;48.644;9.006;2022-09-03T11:59:00;22.00;99.90
21906;DHT22;11117;48.644;9.006;2022-09-03T12:01:27;21.30;99.90
21906;DHT22;11117;48.644;9.006;2022-09-03T12:03:57;20.80;99.90
21906;DHT22;11117;48.644;9.006;2022-09-03T12:06:56;20.70;99.90
21906;DHT22;11117;48.644;9.006;2022-09-03T12:12:43;20.20;99.90
21906;DHT22;11117;48.644;9.006;2022-09-03T12:18:24;19.60;99.90
21906;DHT22;11117;48.644;9.006;2022-09-03T12:23:34;19.20;99.90
21906;DHT22;11117;48.644;9.006;2022-09-03T12:26:07;19.20;99.90
21906;DHT22;11117;48.644;9.006;2022-09-03T12:28:37;19.20;99.90
21906;DHT22;11117;48.644;9.006;2022-09-03T12:33:41;19.20;99.90
21906;DHT22;11117;48.644;9.006;2022-09-03T12:36:08;19.10;99.90
21906;DHT22;11117;48.644;9.006;2022-09-03T12:38:34;18.90;99.90
21906;DHT22;11117;48.644;9.006;2022-09-03T12:41:00;19.10;99.90
21906;DHT22;11117;48.644;9.006;2022-09-03T12:43:28;19.00;99.90
21906;DHT22;11117;48.644;9.006;2022-09-03T12:45:54;18.90;99.90
21906;DHT22;11117;48.644;9.006;2022-09-03T12:48:20;19.10;99.90
21906;DHT22;11117;48.644;9.006;2022-09-03T12:50:47;19.30;99.90
21906;DHT22;11117;48.644;9.006;2022-09-03T12:53:21;19.50;99.90
21906;DHT22;11117;48.644;9.006;2022-09-03T12:58:24;19.70;99.90
21906;DHT22;11117;48.644;9.006;2022-09-03T13:03:48;20.20;99.90
21906;DHT22;11117;48.644;9.006;2022-09-03T13:06:19;20.60;99.90
21906;DHT22;11117;48.644;9.006;2022-09-03T13:08:50;21.00;99.90
21906;DHT22;11117;48.644;9.006;2022-09-03T13:11:22;21.30;99.90
21906;DHT22;11117;48.644;9.006;2022-09-03T13:27:27;22.80;99.90
21906;DHT22;11117;48.644;9.006;2022-09-03T13:30:18;22.80;99.90
21906;DHT22;11117;48.644;9.006;2022-09-03T13:41:36;23.20;99.90
21906;DHT22;11117;48.644;9.006;2022-09-03T13:44:09;23.20;99.90
21906;DHT22;11117;48.644;9.006;2022-09-03T13:46:46;23.20;99.90
21906;DHT22;11117;48.644;9.006;2022-09-03T13:52:04;23.30;99.90
21906;DHT22;11117;48.644;9.006;2022-09-03T13:54:38;23.40;99.90
21906;DHT22;11117;48.644;9.006;2022-09-03T14:00:07;23.40;99.90
21906;DHT22;11117;48.644;9.006;2022-09-03T14:03:16;23.30;99.90
21906;DHT22;11117;48.644;9.006;2022-09-03T14:08:55;23.50;99.90
21906;DHT22;11117;48.644;9.006;2022-09-03T14:11:58;23.30;99.90
21906;DHT22;11117;48.644;9.006;2022-09-03T14:17:22;23.20;99.90
21906;DHT22;11117;48.644;9.006;2022-09-03T14:20:01;23.30;99.90
21906;DHT22;11117;48.644;9.006;2022-09-03T14:22:55;23.50;99.90
21906;DHT22;11117;48.644;9.006;2022-09-03T14:25:25;23.60;99.90
21906;DHT22;11117;48.644;9.006;2022-09-03T14:27:52;23.60;99.90
21906;DHT22;11117;48.644;9.006;2022-09-03T14:33:18;23.80;99.90
21906;DHT22;11117;48.644;9.006;2022-09-03T14:38:29;23.90;99.90
21906;DHT22;11117;48.644;9.006;2022-09-03T14:41:20;24.00;99.90
21906;DHT22;11117;48.644;9.006;2022-09-03T14:44:01;24.00;99.90
21906;DHT22;11117;48.644;9.006;2022-09-03T14:46:49;23.90;99.90
21906;DHT22;11117;48.644;9.006;2022-09-03T15:00:43;23.80;99.90
21906;DHT22;11117;48.644;9.006;2022-09-03T15:08:43;24.10;99.90
21906;DHT22;11117;48.644;9.006;2022-09-03T15:11:19;24.10;99.90
21906;DHT22;11117;48.644;9.006;2022-09-03T15:14:08;24.10;99.90
21906;DHT22;11117;48.644;9.006;2022-09-03T15:16:39;24.20;99.90
21906;DHT22;11117;48.644;9.006;2022-09-03T15:24:56;24.10;99.90
21906;DHT22;11117;48.644;9.006;2022-09-03T15:30:33;23.90;99.60
21906;DHT22;11117;48.644;9.006;2022-09-03T15:40:59;23.40;99.90
21906;DHT22;11117;48.644;9.006;2022-09-03T15:43:31;23.30;99.90
21906;DHT22;11117;48.644;9.006;2022-09-03T15:46:08;23.20;99.90
21906;DHT22;11117;48.644;9.006;2022-09-03T15:48:49;23.30;99.90
21906;DHT22;11117;48.644;9.006;2022-09-03T15:54:15;23.50;99.90
21906;DHT22;11117;48.644;9.006;2022-09-03T16:02:30;23.70;99.90
21906;DHT22;11117;48.644;9.006;2022-09-03T16:05:17;23.60;99.90
21906;DHT22;11117;48.644;9.006;2022-09-03T16:11:08;23.50;99.90
21906;DHT22;11117;48.644;9.006;2022-09-03T16:17:06;23.40;99.90
21906;DHT22;11117;48.644;9.006;2022-09-03T16:22:06;23.20;99.90
21906;DHT22;11117;48.644;9.006;2022-09-03T16:25:06;23.10;99.90
21906;DHT22;11117;48.644;9.006;2022-09-03T16:27:36;23.00;99.90
21906;DHT22;11117;48.644;9.006;2022-09-03T16:30:12;23.00;99.90
21906;DHT22;11117;48.644;9.006;2022-09-03T16:35:52;22.80;99.90
21906;DHT22;11117;48.644;9.006;2022-09-03T16:44:22;22.90;99.90
21906;DHT22;11117;48.644;9.006;2022-09-03T16:47:04;22.90;99.90
21906;DHT22;11117;48.644;9.006;2022-09-03T16:52:28;23.00;99.90
21906;DHT22;11117;48.644;9.006;2022-09-03T16:58:16;23.10;99.90
21906;DHT22;11117;48.644;9.006;2022-09-03T17:00:48;22.90;99.90
21906;DHT22;11117;48.644;9.006;2022-09-03T17:03:20;22.90;99.90
21906;DHT22;11117;48.644;9.006;2022-09-03T17:06:00;22.80;99.90
21906;DHT22;11117;48.644;9.006;2022-09-03T17:18:52;22.00;99.90
21906;DHT22;11117;48.644;9.006;2022-09-03T17:24:29;21.70;99.90
21906;DHT22;11117;48.644;9.006;2022-09-03T17:35:58;21.10;99.90
21906;DHT22;11117;48.644;9.006;2022-09-03T17:39:14;21.00;99.90
21906;DHT22;11117;48.644;9.006;2022-09-03T17:41:51;20.80;99.90
21906;DHT22;11117;48.644;9.006;2022-09-03T17:50:04;20.40;99.90
21906;DHT22;11117;48.644;9.006;2022-09-03T17:55:52;20.20;99.90
21906;DHT22;11117;48.644;9.006;2022-09-03T17:58:06;20.10;99.90
21906;DHT22;11117;48.644;9.006;2022-09-03T18:00:56;20.00;99.90
21906;DHT22;11117;48.644;9.006;2022-09-03T18:03:31;19.90;99.90
21906;DHT22;11117;48.644;9.006;2022-09-03T18:06:03;19.80;99.90
21906;DHT22;11117;48.644;9.006;2022-09-03T18:08:41;19.70;99.90
21906;DHT22;11117;48.644;9.006;2022-09-03T18:11:11;19.60;99.90
21906;DHT22;11117;48.644;9.006;2022-09-03T18:16:33;19.40;99.90
21906;DHT22;11117;48.644;9.006;2022-09-03T18:21:36;19.30;99.90
21906;DHT22;11117;48.644;9.006;2022-09-03T18:27:00;19.10;99.90
21906;DHT22;11117;48.644;9.006;2022-09-03T18:31:53;18.90;99.90
21906;DHT22;11117;48.644;9.006;2022-09-03T18:34:28;18.80;99.90
21906;DHT22;11117;48.644;9.006;2022-09-03T18:36:58;18.70;99.90
21906;DHT22;11117;48.644;9.006;2022-09-03T18:39:26;18.60;99.90
21906;DHT22;11117;48.644;9.006;2022-09-03T18:42:18;18.60;99.90
21906;DHT22;11117;48.644;9.006;2022-09-03T18:47:51;18.50;99.90
21906;DHT22;11117;48.644;9.006;2022-09-03T18:53:32;18.30;99.90
21906;DHT22;11117;48.644;9.006;2022-09-03T18:58:55;18.20;99.90
21906;DHT22;11117;48.644;9.006;2022-09-03T19:01:37;18.20;99.90
21906;DHT22;11117;48.644;9.006;2022-09-03T19:09:33;18.10;99.90
21906;DHT22;11117;48.644;9.006;2022-09-03T19:15:03;18.00;99.90
21906;DHT22;11117;48.644;9.006;2022-09-03T19:20:34;17.90;99.90
21906;DHT22;11117;48.644;9.006;2022-09-03T19:23:02;17.80;99.90
21906;DHT22;11117;48.644;9.006;2022-09-03T19:25:29;17.80;99.90
21906;DHT22;11117;48.644;9.006;2022-09-03T19:41:40;17.70;99.90
21906;DHT22;11117;48.644;9.006;2022-09-03T19:44:54;17.60;99.90
21906;DHT22;11117;48.644;9.006;2022-09-03T19:47:57;17.60;99.90
21906;DHT22;11117;48.644;9.006;2022-09-03T19:50:24;17.60;99.90
21906;DHT22;11117;48.644;9.006;2022-09-03T19:53:00;17.50;99.90
21906;DHT22;11117;48.644;9.006;2022-09-03T19:55:30;17.50;99.90
21906;DHT22;11117;48.644;9.006;2022-09-03T19:58:00;17.50;99.90
21906;DHT22;11117;48.644;9.006;2022-09-03T20:00:26;17.50;99.90
21906;DHT22;11117;48.644;9.006;2022-09-03T20:02:54;17.50;99.90
21906;DHT22;11117;48.644;9.006;2022-09-03T20:05:21;17.50;99.90
21906;DHT22;11117;48.644;9.006;2022-09-03T20:07:49;17.50;99.90
21906;DHT22;11117;48.644;9.006;2022-09-03T20:10:17;17.40;99.90
21906;DHT22;11117;48.644;9.006;2022-09-03T20:13:08;17.30;99.90
21906;DHT22;11117;48.644;9.006;2022-09-03T20:29:55;17.10;99.90
21906;DHT22;11117;48.644;9.006;2022-09-03T20:32:31;17.10;99.90
21906;DHT22;11117;48.644;9.006;2022-09-03T20:37:57;17.20;99.90
21906;DHT22;11117;48.644;9.006;2022-09-03T20:41:06;17.20;99.90
21906;DHT22;11117;48.644;9.006;2022-09-03T20:43:55;17.30;99.90
21906;DHT22;11117;48.644;9.006;2022-09-03T20:52:36;17.40;99.90
21906;DHT22;11117;48.644;9.006;2022-09-03T20:55:20;17.50;99.90
21906;DHT22;11117;48.644;9.006;2022-09-03T20:57:56;17.50;99.90
21906;DHT22;11117;48.644;9.006;2022-09-03T21:00:52;17.50;99.90
21906;DHT22;11117;48.644;9.006;2022-09-03T21:09:30;17.60;99.90
21906;DHT22;11117;48.644;9.006;2022-09-03T21:14:38;17.60;99.90
21906;DHT22;11117;48.644;9.006;2022-09-03T21:20:15;17.70;99.90
21906;DHT22;11117;48.644;9.006;2022-09-03T21:25:34;17.70;99.90
21906;DHT22;11117;48.644;9.006;2022-09-03T21:28:22;17.80;99.90
21906;DHT22;11117;48.644;9.006;2022-09-03T21:30:55;17.80;99.90
21906;DHT22;11117;48.644;9.006;2022-09-03T21:33:27;17.80;99.90
21906;DHT22;11117;48.644;9.006;2022-09-03T21:38:38;17.80;99.90
21906;DHT22;11117;48.644;9.006;2022-09-03T21:41:16;17.70;99.90
21906;DHT22;11117;48.644;9.006;2022-09-03T21:43:56;17.70;99.90
21906;DHT22;11117;48.644;9.006;2022-09-03T21:46:26;17.50;99.90
21906;DHT22;11117;48.644;9.006;2022-09-03T21:49:18;17.30;99.90
21906;DHT22;11117;48.644;9.006;2022-09-03T21:52:07;17.20;99.90
21906;DHT22;11117;48.644;9.006;2022-09-03T21:54:35;17.00;99.90